Accueil
METAR-TAF:

METAR-TAF

Aéroports :

Khartoum, Soudan

Aéroport international de Khartoum

latitude: 15-36N, longitude: 032-33E, altitude: 382 m

Observation

Le bulletin a été fait il y a 34 minutes, à 00:00 UTC
Vent 9 kt de nord
Température 24°C
Humidité 34%
Pression 1012 hPa
Visibilité 10 km ou plus
pas de nuages en-dessous de 1500 mètres et pas de cumulonimbus.

METAR: HSSS 140000Z 36009KT CAVOK 24/07 Q1012 NOSIG

Heure: 03:34 (00:34 UTC)

Prévision

Le bulletin a été fait il y a 1 heure et 34 minutes, à 23:00 UTC
Prévision valable du 14 à 00 UTC au 15 à 06 UTC
Vent 10 kt de nord avec des rafales jusqu'à 20 kt
Visibilité 10 km ou plus
pas de nuages en-dessous de 1500 mètres et pas de cumulonimbus.
Temporairement
du 14 à 03 UTC au 14 à 09 UTC
Visibilité: 6000 m

TAF: HSSS 132300Z 1400/1506 36010G20KT CAVOK TEMPO 1403/1409 6000

Observations et prévisions météorologiques de plus de 4000 aéroports (messages METAR et TAF).

Les stations disponibles sont représentées par des disques jaunes et rouges sur la carte.

Passer la souris dessus pour voir le nom de la station.

Cliquer dessus pour voir les observations et prévisions météorologiques.

Pour changer de carte: cliquez sur les boutons verts avec une croix noire pour zoomer, sur le bouton vert avec un tiret pour effectuer un zoom arrière, ou sur les flèches vertes pour les cartes adjacentes.


METAR-TAF: